• Join FlightAware (Why Join?)
  • Login
  • US Flag 
09:54PM EST


 

Airport Tracker/Info


-or-


 

Live Flight TrackerFlight Track Log ✈ EJA987 ✈ 29-Jun-2013 ✈ KRIC - KIAD

Flight Track Log - Related Links

Times and Time Zones

All times are in EDT time to prevent confusion due to time zone crossing. See the EJA987 flight status page for this flight to view local times or setup timezone preferences in your user account.

Time Position Orientation Groundspeed Altitude Reporting Facility
EDT Latitude Longitude Course Direction KTS MPH feet Rate Location/Type
11:12AM 37.4667 -77.3167 270° West 214 246 2,100  Level Potomac TRACON
11:13AM 37.4667 -77.3667 270° West 255 293 5,000 2,760 Climbing Potomac TRACON
11:15AM 37.5569 -77.4019 343° North 314 361 8,300 1,800 Climbing Washington Center
11:16AM 37.6336 -77.4353 341° North 308 354 9,000 780 Climbing Washington Center
11:17AM 37.7142 -77.4714 340° North 302 348 9,900 480 Climbing Washington Center
11:18AM 37.7931 -77.5050 341° North 302 348 10,000  Climbing Washington Center
11:19AM 37.8717 -77.5383 341° North 297 342 10,000  Level Washington Center
11:20AM 37.9483 -77.5667 344° North 297 342 10,000  Level Washington Center
11:21AM 38.0136 -77.5422 16° North 281 323 10,000  Level Washington Center
11:22AM 38.1019 -77.4942 23° Northeast 290 334 10,000  Level Washington Center
11:23AM 38.1819 -77.4461 25° Northeast 301 346 10,000 -480 Level Washington Center
11:24AM 38.2617 -77.4006 24° Northeast 311 358 9,100 -1,020 Descending Washington Center
11:25AM 38.3375 -77.3572 24° Northeast 311 358 8,000 -1,080 Descending Washington Center
11:26AM 38.4208 -77.3592 359° North 293 337 7,000 -1,020 Descending Washington Center
11:27AM 38.5000 -77.3611 359° North 293 337 6,000 -1,020 Descending Washington Center
11:28AM 38.5833 -77.3683 356° North 293 337 5,000 -540 Descending Washington Center
11:29AM 38.6564 -77.3650 North 283 326 5,000 -240 Level Washington Center
11:30AM 38.7333 -77.3667 359° North 270 311 4,600 -540 Descending Potomac TRACON
11:31AM 38.8167 -77.3500 North 265 305 4,000 -600 Descending Potomac TRACON
11:32AM 38.8833 -77.3500 360° North 245 282 3,500 -480 Descending Potomac TRACON
11:33AM 38.9667 -77.3500 360° North 264 304 3,000 -300 Descending Potomac TRACON
11:34AM 39.0333 -77.3500 360° North 229 264 3,000 -420 Level Potomac TRACON
11:35AM 39.0500 -77.4000 293° West 197 227 2,200 -840 Descending Potomac TRACON
11:36AM 39.0000 -77.4333 207° Southwest 170 196 1,300 -780 Descending Potomac TRACON
11:37AM 38.9667 -77.4333 180° South 147 169 600 -720 Descending Potomac TRACON
11:39AM 38.9474 -77.4599 195° South  Level Estimated
11:46AM 38.9474 -77.4599 195° South  Level Estimated
11:47AM 38.9474 -77.4599 195° South  Level Estimated
11:48AM 38.9474 -77.4599 195° South  Level Estimated